sensor_id;sensor_type;location;lat;lon;timestamp;pressure;altitude;pressure_sealevel;temperature;humidity
67377;BME280;54261;46.086;6.588;2023-02-28T00:03:00;92388.56;;;0.39;41.89
67377;BME280;54261;46.086;6.588;2023-02-28T00:08:03;92376.38;;;-0.75;43.89
67377;BME280;54261;46.086;6.588;2023-02-28T00:13:06;92376.81;;;-0.84;42.42
67377;BME280;54261;46.086;6.588;2023-02-28T00:18:08;92369.50;;;-0.11;41.96
67377;BME280;54261;46.086;6.588;2023-02-28T00:23:10;92375.91;;;1.00;41.17
67377;BME280;54261;46.086;6.588;2023-02-28T00:28:12;92364.88;;;1.50;39.95
67377;BME280;54261;46.086;6.588;2023-02-28T00:33:14;92375.16;;;1.20;38.78
67377;BME280;54261;46.086;6.588;2023-02-28T00:38:16;92375.97;;;1.31;38.26
67377;BME280;54261;46.086;6.588;2023-02-28T00:43:18;92366.88;;;0.85;38.38
67377;BME280;54261;46.086;6.588;2023-02-28T00:48:20;92366.13;;;0.95;38.71
67377;BME280;54261;46.086;6.588;2023-02-28T00:53:22;92383.75;;;-0.77;40.84
67377;BME280;54261;46.086;6.588;2023-02-28T00:58:24;92388.22;;;0.73;39.30
67377;BME280;54261;46.086;6.588;2023-02-28T01:03:26;92374.59;;;1.08;38.50
67377;BME280;54261;46.086;6.588;2023-02-28T01:08:28;92389.13;;;1.00;38.20
67377;BME280;54261;46.086;6.588;2023-02-28T01:13:30;92384.94;;;0.51;39.16
67377;BME280;54261;46.086;6.588;2023-02-28T01:18:32;92370.84;;;-0.09;40.01
67377;BME280;54261;46.086;6.588;2023-02-28T01:23:34;92383.00;;;0.36;40.28
67377;BME280;54261;46.086;6.588;2023-02-28T01:28:37;92345.72;;;-0.82;42.17
67377;BME280;54261;46.086;6.588;2023-02-28T01:33:39;92377.34;;;0.65;40.36
67377;BME280;54261;46.086;6.588;2023-02-28T01:38:42;92367.94;;;0.36;39.63
67377;BME280;54261;46.086;6.588;2023-02-28T01:48:51;92368.03;;;1.36;38.91
67377;BME280;54261;46.086;6.588;2023-02-28T01:53:59;92374.63;;;1.18;38.60
67377;BME280;54261;46.086;6.588;2023-02-28T01:59:03;92368.50;;;1.02;38.36
67377;BME280;54261;46.086;6.588;2023-02-28T02:04:06;92350.81;;;1.08;38.66
67377;BME280;54261;46.086;6.588;2023-02-28T02:09:08;92375.91;;;1.00;38.88
67377;BME280;54261;46.086;6.588;2023-02-28T02:46:41;92344.63;;;0.17;41.18
67377;BME280;54261;46.086;6.588;2023-02-28T02:51:44;92355.53;;;-0.06;39.92
67377;BME280;54261;46.086;6.588;2023-02-28T02:56:49;92348.00;;;-1.85;44.29
67377;BME280;54261;46.086;6.588;2023-02-28T03:01:55;92348.72;;;0.46;41.39
67377;BME280;54261;46.086;6.588;2023-02-28T03:06:58;92342.50;;;-1.16;43.70
67377;BME280;54261;46.086;6.588;2023-02-28T03:12:01;92340.22;;;-0.10;41.58
67377;BME280;54261;46.086;6.588;2023-02-28T03:28:10;92344.09;;;0.21;41.23
67377;BME280;54261;46.086;6.588;2023-02-28T03:33:38;92302.06;;;-0.40;41.82
67377;BME280;54261;46.086;6.588;2023-02-28T03:38:45;92359.03;;;-4.13;49.70
67377;BME280;54261;46.086;6.588;2023-02-28T03:43:54;92359.53;;;-3.64;48.67
67377;BME280;54261;46.086;6.588;2023-02-28T03:49:16;92348.34;;;-3.30;50.87
67377;BME280;54261;46.086;6.588;2023-02-28T03:54:27;92346.19;;;-2.01;46.68
67377;BME280;54261;46.086;6.588;2023-02-28T03:59:36;92362.53;;;-1.82;46.07
67377;BME280;54261;46.086;6.588;2023-02-28T04:04:41;92359.03;;;-1.66;46.67
67377;BME280;54261;46.086;6.588;2023-02-28T04:09:46;92367.09;;;-3.09;50.02
67377;BME280;54261;46.086;6.588;2023-02-28T04:14:49;92346.31;;;-2.82;49.86
67377;BME280;54261;46.086;6.588;2023-02-28T04:19:51;92351.75;;;-0.86;45.22
67377;BME280;54261;46.086;6.588;2023-02-28T04:24:53;92362.88;;;-4.16;50.64
67377;BME280;54261;46.086;6.588;2023-02-28T04:29:57;92358.75;;;-1.25;46.17
67377;BME280;54261;46.086;6.588;2023-02-28T04:34:59;92335.78;;;-1.29;46.03
67377;BME280;54261;46.086;6.588;2023-02-28T04:40:01;92364.41;;;-1.11;44.09
67377;BME280;54261;46.086;6.588;2023-02-28T04:45:04;92356.09;;;-1.91;45.09
67377;BME280;54261;46.086;6.588;2023-02-28T04:50:07;92367.88;;;-0.17;43.51
67377;BME280;54261;46.086;6.588;2023-02-28T04:55:09;92300.72;;;-0.75;43.85
67377;BME280;54261;46.086;6.588;2023-02-28T05:00:12;92376.44;;;-1.20;43.89
67377;BME280;54261;46.086;6.588;2023-02-28T05:05:16;92358.78;;;-0.70;42.99
67377;BME280;54261;46.086;6.588;2023-02-28T05:10:20;92378.66;;;-1.96;44.85
67377;BME280;54261;46.086;6.588;2023-02-28T05:15:22;92369.00;;;-1.90;44.88
67377;BME280;54261;46.086;6.588;2023-02-28T05:20:24;92379.00;;;-1.25;44.38
67377;BME280;54261;46.086;6.588;2023-02-28T05:25:26;92387.81;;;-2.15;44.90
67377;BME280;54261;46.086;6.588;2023-02-28T05:30:28;92377.72;;;-1.00;43.53
67377;BME280;54261;46.086;6.588;2023-02-28T05:35:29;92388.25;;;-1.00;43.74
67377;BME280;54261;46.086;6.588;2023-02-28T05:40:31;92385.88;;;-1.24;43.23
67377;BME280;54261;46.086;6.588;2023-02-28T05:45:33;92379.56;;;-0.73;42.85
67377;BME280;54261;46.086;6.588;2023-02-28T05:50:35;92408.38;;;-0.01;42.05
67377;BME280;54261;46.086;6.588;2023-02-28T05:55:38;92409.00;;;0.11;41.65
67377;BME280;54261;46.086;6.588;2023-02-28T06:00:39;92415.75;;;0.40;40.87
67377;BME280;54261;46.086;6.588;2023-02-28T06:05:43;92375.16;;;0.08;41.06
67377;BME280;54261;46.086;6.588;2023-02-28T06:10:45;92416.28;;;0.37;40.35
67377;BME280;54261;46.086;6.588;2023-02-28T06:15:47;92411.34;;;-0.85;43.28
67377;BME280;54261;46.086;6.588;2023-02-28T06:20:53;92410.53;;;0.07;40.65
67377;BME280;54261;46.086;6.588;2023-02-28T06:25:56;92414.75;;;-0.85;41.76
67377;BME280;54261;46.086;6.588;2023-02-28T06:31:09;92425.00;;;-1.55;43.84
67377;BME280;54261;46.086;6.588;2023-02-28T06:36:13;92431.13;;;-1.05;43.90
67377;BME280;54261;46.086;6.588;2023-02-28T06:41:15;92440.25;;;-2.26;47.08
67377;BME280;54261;46.086;6.588;2023-02-28T06:46:17;92437.28;;;-1.22;43.61
67377;BME280;54261;46.086;6.588;2023-02-28T06:51:20;92429.28;;;-1.49;44.71
67377;BME280;54261;46.086;6.588;2023-02-28T06:56:24;92418.25;;;-0.19;43.25
67377;BME280;54261;46.086;6.588;2023-02-28T07:01:26;92451.72;;;-2.15;45.49
67377;BME280;54261;46.086;6.588;2023-02-28T07:06:30;92454.34;;;-3.84;49.37
67377;BME280;54261;46.086;6.588;2023-02-28T07:11:32;92452.88;;;-1.76;46.95
67377;BME280;54261;46.086;6.588;2023-02-28T07:16:35;92456.75;;;-1.23;45.35
67377;BME280;54261;46.086;6.588;2023-02-28T07:21:37;92456.22;;;-1.02;44.74
67377;BME280;54261;46.086;6.588;2023-02-28T07:26:39;92443.38;;;-1.77;44.59
67377;BME280;54261;46.086;6.588;2023-02-28T07:31:40;92453.59;;;-1.81;48.41
67377;BME280;54261;46.086;6.588;2023-02-28T07:36:42;92440.41;;;-4.20;50.07
67377;BME280;54261;46.086;6.588;2023-02-28T07:41:44;92436.00;;;-5.42;54.97
67377;BME280;54261;46.086;6.588;2023-02-28T07:46:46;92451.44;;;-6.40;60.31
67377;BME280;54261;46.086;6.588;2023-02-28T07:51:48;92467.41;;;-5.23;55.80
67377;BME280;54261;46.086;6.588;2023-02-28T07:56:50;92470.56;;;-5.33;55.82
67377;BME280;54261;46.086;6.588;2023-02-28T08:01:52;92465.97;;;-6.77;60.75
67377;BME280;54261;46.086;6.588;2023-02-28T08:06:54;92465.34;;;-6.21;59.42
67377;BME280;54261;46.086;6.588;2023-02-28T08:11:58;92472.28;;;-5.46;57.35
67377;BME280;54261;46.086;6.588;2023-02-28T08:17:00;92462.56;;;-6.01;58.20
67377;BME280;54261;46.086;6.588;2023-02-28T08:22:02;92464.44;;;-6.34;59.74
67377;BME280;54261;46.086;6.588;2023-02-28T08:27:04;92468.22;;;-3.71;51.67
67377;BME280;54261;46.086;6.588;2023-02-28T08:32:07;92460.13;;;-3.94;53.12
67377;BME280;54261;46.086;6.588;2023-02-28T08:37:24;92463.72;;;-5.71;56.89
67377;BME280;54261;46.086;6.588;2023-02-28T08:42:26;92470.16;;;-5.55;55.88
67377;BME280;54261;46.086;6.588;2023-02-28T08:47:28;92458.91;;;-5.75;57.89
67377;BME280;54261;46.086;6.588;2023-02-28T08:52:30;92477.09;;;-4.32;54.56
67377;BME280;54261;46.086;6.588;2023-02-28T08:57:32;92430.34;;;-5.76;56.61
67377;BME280;54261;46.086;6.588;2023-02-28T09:02:34;92458.41;;;-6.60;60.65
67377;BME280;54261;46.086;6.588;2023-02-28T09:07:36;92458.31;;;-6.21;61.15
67377;BME280;54261;46.086;6.588;2023-02-28T09:12:38;92476.34;;;-5.50;58.90
67377;BME280;54261;46.086;6.588;2023-02-28T09:17:40;92474.38;;;-6.75;61.73
67377;BME280;54261;46.086;6.588;2023-02-28T09:22:43;92455.66;;;-7.56;64.58
67377;BME280;54261;46.086;6.588;2023-02-28T09:27:45;92482.19;;;-6.17;62.33
67377;BME280;54261;46.086;6.588;2023-02-28T09:32:47;92493.31;;;-2.87;53.61
67377;BME280;54261;46.086;6.588;2023-02-28T09:37:53;92484.19;;;-0.24;49.54
67377;BME280;54261;46.086;6.588;2023-02-28T09:42:57;92463.13;;;-5.36;56.27
67377;BME280;54261;46.086;6.588;2023-02-28T09:48:04;92494.09;;;-4.53;55.23
67377;BME280;54261;46.086;6.588;2023-02-28T09:53:32;92480.88;;;-4.89;56.13
67377;BME280;54261;46.086;6.588;2023-02-28T09:58:46;92494.00;;;-5.64;59.12
67377;BME280;54261;46.086;6.588;2023-02-28T10:09:19;92486.44;;;-1.84;50.64
67377;BME280;54261;46.086;6.588;2023-02-28T10:14:26;92515.03;;;-4.65;54.08
67377;BME280;54261;46.086;6.588;2023-02-28T10:19:34;92496.03;;;-4.06;53.02
67377;BME280;54261;46.086;6.588;2023-02-28T10:24:43;92481.22;;;-5.16;56.01
67377;BME280;54261;46.086;6.588;2023-02-28T10:30:05;92488.81;;;-5.89;58.44
67377;BME280;54261;46.086;6.588;2023-02-28T10:45:22;92496.94;;;-0.66;46.36
67377;BME280;54261;46.086;6.588;2023-02-28T10:50:44;92443.59;;;-4.18;51.75
67377;BME280;54261;46.086;6.588;2023-02-28T11:01:14;92490.94;;;-3.53;50.42
67377;BME280;54261;46.086;6.588;2023-02-28T11:06:19;92498.38;;;-1.02;47.61
67377;BME280;54261;46.086;6.588;2023-02-28T11:11:25;92487.47;;;-0.89;45.93
67377;BME280;54261;46.086;6.588;2023-02-28T11:16:37;92487.63;;;-3.96;53.15
67377;BME280;54261;46.086;6.588;2023-02-28T11:21:51;92447.31;;;-2.89;49.55
67377;BME280;54261;46.086;6.588;2023-02-28T11:26:54;92475.50;;;-0.74;44.93
67377;BME280;54261;46.086;6.588;2023-02-28T11:32:26;92446.34;;;1.42;40.72
67377;BME280;54261;46.086;6.588;2023-02-28T11:37:31;92470.06;;;-3.48;51.19
67377;BME280;54261;46.086;6.588;2023-02-28T11:48:19;92450.06;;;-4.44;56.08
67377;BME280;54261;46.086;6.588;2023-02-28T11:53:34;92460.06;;;-1.72;48.47
67377;BME280;54261;46.086;6.588;2023-02-28T12:09:23;92464.59;;;-3.82;54.28
67377;BME280;54261;46.086;6.588;2023-02-28T12:14:52;92465.38;;;-2.93;51.33
67377;BME280;54261;46.086;6.588;2023-02-28T12:25:54;92442.78;;;-4.30;55.01
67377;BME280;54261;46.086;6.588;2023-02-28T12:31:05;92464.91;;;-3.43;52.87
67377;BME280;54261;46.086;6.588;2023-02-28T12:36:11;92465.97;;;-3.56;52.82
67377;BME280;54261;46.086;6.588;2023-02-28T12:41:20;92446.03;;;-2.58;52.24
67377;BME280;54261;46.086;6.588;2023-02-28T12:46:32;92434.53;;;-2.05;47.67
67377;BME280;54261;46.086;6.588;2023-02-28T12:51:38;92426.50;;;-1.99;48.86
67377;BME280;54261;46.086;6.588;2023-02-28T12:56:59;92443.41;;;-1.95;50.20
67377;BME280;54261;46.086;6.588;2023-02-28T13:13:26;92440.06;;;-3.11;53.11
67377;BME280;54261;46.086;6.588;2023-02-28T13:38:55;92421.09;;;-0.26;47.14
67377;BME280;54261;46.086;6.588;2023-02-28T13:44:08;92442.91;;;-1.74;50.01
67377;BME280;54261;46.086;6.588;2023-02-28T13:49:25;92427.91;;;-1.12;47.60
67377;BME280;54261;46.086;6.588;2023-02-28T13:59:52;92450.72;;;-0.18;45.54
67377;BME280;54261;46.086;6.588;2023-02-28T14:10:07;92454.81;;;-0.60;46.31
67377;BME280;54261;46.086;6.588;2023-02-28T14:20:29;92449.31;;;-1.87;50.04
67377;BME280;54261;46.086;6.588;2023-02-28T14:36:26;92465.84;;;0.62;44.67
67377;BME280;54261;46.086;6.588;2023-02-28T14:41:35;92458.94;;;-1.14;46.69
67377;BME280;54261;46.086;6.588;2023-02-28T14:46:40;92340.31;;;-1.47;46.18
67377;BME280;54261;46.086;6.588;2023-02-28T14:51:43;92457.63;;;-0.67;45.65
67377;BME280;54261;46.086;6.588;2023-02-28T14:56:48;92455.94;;;-2.31;49.42
67377;BME280;54261;46.086;6.588;2023-02-28T15:01:51;92448.56;;;-2.63;49.69
67377;BME280;54261;46.086;6.588;2023-02-28T15:12:14;92452.88;;;1.14;44.08
67377;BME280;54261;46.086;6.588;2023-02-28T15:17:24;92452.53;;;1.95;42.07
67377;BME280;54261;46.086;6.588;2023-02-28T15:22:35;92445.91;;;-1.26;46.08
67377;BME280;54261;46.086;6.588;2023-02-28T15:27:45;92453.69;;;-0.92;47.85
67377;BME280;54261;46.086;6.588;2023-02-28T15:33:18;92457.63;;;-0.12;46.78
67377;BME280;54261;46.086;6.588;2023-02-28T15:38:24;92455.72;;;-1.78;49.16
67377;BME280;54261;46.086;6.588;2023-02-28T15:43:31;92456.69;;;-2.94;50.74
67377;BME280;54261;46.086;6.588;2023-02-28T15:54:00;92466.44;;;-1.06;47.72
67377;BME280;54261;46.086;6.588;2023-02-28T15:59:05;92461.72;;;-2.92;50.88
67377;BME280;54261;46.086;6.588;2023-02-28T16:04:19;92465.53;;;-1.56;46.95
67377;BME280;54261;46.086;6.588;2023-02-28T16:09:21;92452.56;;;-0.19;46.91
67377;BME280;54261;46.086;6.588;2023-02-28T16:14:27;92468.03;;;-0.28;46.48
67377;BME280;54261;46.086;6.588;2023-02-28T16:19:32;92480.38;;;0.65;43.10
67377;BME280;54261;46.086;6.588;2023-02-28T16:24:35;92480.59;;;-1.12;47.33
67377;BME280;54261;46.086;6.588;2023-02-28T16:29:38;92483.31;;;-0.02;43.89
67377;BME280;54261;46.086;6.588;2023-02-28T16:34:42;92483.53;;;-0.64;45.21
67377;BME280;54261;46.086;6.588;2023-02-28T16:39:45;92494.28;;;0.98;43.35
67377;BME280;54261;46.086;6.588;2023-02-28T16:44:47;92491.41;;;3.03;40.41
67377;BME280;54261;46.086;6.588;2023-02-28T16:49:49;92466.19;;;1.35;40.01
67377;BME280;54261;46.086;6.588;2023-02-28T16:54:50;92498.81;;;0.97;40.48
67377;BME280;54261;46.086;6.588;2023-02-28T16:59:52;92517.53;;;1.54;39.33
67377;BME280;54261;46.086;6.588;2023-02-28T17:04:54;92505.63;;;0.88;41.83
67377;BME280;54261;46.086;6.588;2023-02-28T17:09:56;92512.50;;;1.48;39.65
67377;BME280;54261;46.086;6.588;2023-02-28T17:14:58;92508.41;;;0.33;41.64
67377;BME280;54261;46.086;6.588;2023-02-28T17:20:00;92503.44;;;0.42;41.63
67377;BME280;54261;46.086;6.588;2023-02-28T17:25:02;92512.81;;;1.67;39.34
67377;BME280;54261;46.086;6.588;2023-02-28T17:30:31;92520.03;;;-2.49;47.59
67377;BME280;54261;46.086;6.588;2023-02-28T17:35:34;92519.88;;;-1.67;46.69
67377;BME280;54261;46.086;6.588;2023-02-28T17:40:36;92529.06;;;0.74;41.37
67377;BME280;54261;46.086;6.588;2023-02-28T17:45:38;92460.13;;;-0.00;41.17
67377;BME280;54261;46.086;6.588;2023-02-28T17:50:40;92531.47;;;1.29;41.29
67377;BME280;54261;46.086;6.588;2023-02-28T17:55:42;92532.78;;;0.78;40.65
67377;BME280;54261;46.086;6.588;2023-02-28T18:00:44;92542.31;;;2.33;38.82
67377;BME280;54261;46.086;6.588;2023-02-28T18:05:48;92530.09;;;2.00;38.70
67377;BME280;54261;46.086;6.588;2023-02-28T18:10:50;92544.84;;;0.31;41.63
67377;BME280;54261;46.086;6.588;2023-02-28T18:15:52;92542.81;;;2.19;38.98
67377;BME280;54261;46.086;6.588;2023-02-28T18:20:54;92558.06;;;0.64;40.26
67377;BME280;54261;46.086;6.588;2023-02-28T18:25:56;92554.78;;;1.37;39.53
67377;BME280;54261;46.086;6.588;2023-02-28T18:31:19;92552.91;;;1.32;39.22
67377;BME280;54261;46.086;6.588;2023-02-28T18:36:21;92549.88;;;1.67;37.90
67377;BME280;54261;46.086;6.588;2023-02-28T18:41:23;92538.78;;;1.85;38.73
67377;BME280;54261;46.086;6.588;2023-02-28T18:46:24;92542.81;;;1.24;39.99
67377;BME280;54261;46.086;6.588;2023-02-28T18:51:28;92555.16;;;1.08;40.23
67377;BME280;54261;46.086;6.588;2023-02-28T18:56:30;92557.44;;;-0.76;42.85
67377;BME280;54261;46.086;6.588;2023-02-28T19:01:32;92557.63;;;-0.83;43.51
67377;BME280;54261;46.086;6.588;2023-02-28T19:06:35;92543.28;;;-0.47;43.88
67377;BME280;54261;46.086;6.588;2023-02-28T19:11:38;92544.97;;;-0.14;42.50
67377;BME280;54261;46.086;6.588;2023-02-28T19:16:40;92553.13;;;-0.15;42.83
67377;BME280;54261;46.086;6.588;2023-02-28T19:21:42;92555.19;;;0.38;41.54
67377;BME280;54261;46.086;6.588;2023-02-28T19:26:44;92565.47;;;-1.61;45.20
67377;BME280;54261;46.086;6.588;2023-02-28T19:31:46;92563.00;;;-1.34;44.14
67377;BME280;54261;46.086;6.588;2023-02-28T19:36:48;92550.94;;;-0.90;43.45
67377;BME280;54261;46.086;6.588;2023-02-28T19:41:51;92554.84;;;-2.01;47.84
67377;BME280;54261;46.086;6.588;2023-02-28T19:46:54;92556.56;;;-2.07;47.43
67377;BME280;54261;46.086;6.588;2023-02-28T19:51:57;92555.41;;;-1.99;45.79
67377;BME280;54261;46.086;6.588;2023-02-28T19:56:59;92554.00;;;-1.38;46.44
67377;BME280;54261;46.086;6.588;2023-02-28T20:02:02;92556.22;;;-3.21;50.91
67377;BME280;54261;46.086;6.588;2023-02-28T20:07:04;92567.88;;;-2.06;47.38
67377;BME280;54261;46.086;6.588;2023-02-28T20:12:07;92567.44;;;-4.35;54.17
67377;BME280;54261;46.086;6.588;2023-02-28T20:17:24;92560.88;;;-3.71;51.26
67377;BME280;54261;46.086;6.588;2023-02-28T20:22:26;92568.44;;;-2.33;48.88
67377;BME280;54261;46.086;6.588;2023-02-28T20:27:28;92565.56;;;-3.37;51.49
67377;BME280;54261;46.086;6.588;2023-02-28T20:32:30;92567.28;;;-2.54;47.44
67377;BME280;54261;46.086;6.588;2023-02-28T20:37:32;92563.72;;;-1.56;48.34
67377;BME280;54261;46.086;6.588;2023-02-28T20:42:34;92579.50;;;-2.48;48.54
67377;BME280;54261;46.086;6.588;2023-02-28T20:47:35;92568.25;;;-0.55;45.06
67377;BME280;54261;46.086;6.588;2023-02-28T20:52:37;92566.50;;;-1.62;46.56
67377;BME280;54261;46.086;6.588;2023-02-28T20:57:39;92578.69;;;-2.89;47.76
67377;BME280;54261;46.086;6.588;2023-02-28T21:02:41;92575.88;;;-0.98;47.09
67377;BME280;54261;46.086;6.588;2023-02-28T21:07:43;92568.84;;;-1.66;45.32
67377;BME280;54261;46.086;6.588;2023-02-28T21:12:48;92576.25;;;-0.00;43.33
67377;BME280;54261;46.086;6.588;2023-02-28T21:17:50;92580.13;;;-0.53;43.13
67377;BME280;54261;46.086;6.588;2023-02-28T21:22:52;92581.81;;;-1.25;44.98
67377;BME280;54261;46.086;6.588;2023-02-28T21:27:54;92577.25;;;-0.29;44.57
67377;BME280;54261;46.086;6.588;2023-02-28T21:32:57;92584.44;;;-0.91;44.37
67377;BME280;54261;46.086;6.588;2023-02-28T21:37:59;92588.38;;;-2.37;48.57
67377;BME280;54261;46.086;6.588;2023-02-28T21:43:01;92574.81;;;-1.37;45.96
67377;BME280;54261;46.086;6.588;2023-02-28T21:48:03;92571.38;;;-0.36;44.49
67377;BME280;54261;46.086;6.588;2023-02-28T21:53:05;92572.19;;;-1.71;44.47
67377;BME280;54261;46.086;6.588;2023-02-28T21:58:07;92502.88;;;-1.20;44.87
67377;BME280;54261;46.086;6.588;2023-02-28T22:03:08;92580.31;;;-0.59;44.88
67377;BME280;54261;46.086;6.588;2023-02-28T22:08:10;92577.00;;;-2.67;49.06
67377;BME280;54261;46.086;6.588;2023-02-28T22:13:12;92580.78;;;-1.93;47.37
67377;BME280;54261;46.086;6.588;2023-02-28T22:18:14;92581.31;;;-0.43;44.35
67377;BME280;54261;46.086;6.588;2023-02-28T22:23:16;92573.53;;;-1.17;46.75
67377;BME280;54261;46.086;6.588;2023-02-28T22:28:19;92576.72;;;-4.20;51.47
67377;BME280;54261;46.086;6.588;2023-02-28T22:33:22;92558.88;;;-3.99;52.90
67377;BME280;54261;46.086;6.588;2023-02-28T22:38:24;92562.09;;;-1.05;47.20
67377;BME280;54261;46.086;6.588;2023-02-28T22:43:27;92568.09;;;-0.71;46.16
67377;BME280;54261;46.086;6.588;2023-02-28T22:48:29;92572.16;;;-1.88;46.06
67377;BME280;54261;46.086;6.588;2023-02-28T22:53:33;92579.09;;;-0.52;44.36
67377;BME280;54261;46.086;6.588;2023-02-28T22:58:36;92577.28;;;-3.04;50.45
67377;BME280;54261;46.086;6.588;2023-02-28T23:03:40;92571.78;;;-1.62;48.60
67377;BME280;54261;46.086;6.588;2023-02-28T23:08:42;92572.91;;;-0.40;44.68
67377;BME280;54261;46.086;6.588;2023-02-28T23:13:43;92569.66;;;-0.25;44.27
67377;BME280;54261;46.086;6.588;2023-02-28T23:19:00;92580.38;;;-0.32;44.24
67377;BME280;54261;46.086;6.588;2023-02-28T23:24:04;92560.00;;;-2.64;48.86
67377;BME280;54261;46.086;6.588;2023-02-28T23:29:13;92573.53;;;-1.51;47.13
67377;BME280;54261;46.086;6.588;2023-02-28T23:34:17;92573.06;;;-0.91;45.90
67377;BME280;54261;46.086;6.588;2023-02-28T23:39:27;92543.00;;;-0.73;43.32
67377;BME280;54261;46.086;6.588;2023-02-28T23:44:29;92570.41;;;-1.14;44.08
67377;BME280;54261;46.086;6.588;2023-02-28T23:49:32;92544.69;;;-4.53;51.89
67377;BME280;54261;46.086;6.588;2023-02-28T23:54:34;92574.78;;;-2.46;50.45
67377;BME280;54261;46.086;6.588;2023-02-28T23:59:36;92569.22;;;-0.84;46.93
